This is the latest recevied weather packets stored in our database for station/object VE3VGJ. If no packets are shown the sender has not sent any weather packets the latest 10 day(s).
| Time | Temp. | Humidity | Pressure | Rain* | Wind** | Luminosity | Snow |
|---|---|---|---|---|---|---|---|
| 1778111511 | 7.78° C | 54% | 1011.7 hPa | 0 mm | - | 21 W/m² | - |
| 1778111209 | 8.33° C | 54% | 1011.6 hPa | 0 mm | - | 27 W/m² | - |
| 1778110906 | 8.33° C | 55% | 1011.7 hPa | 0 mm | - | 27 W/m² | - |
| 1778110603 | 8.33° C | 55% | 1011.5 hPa | 0 mm | - | 26 W/m² | - |
| 1778110300 | 8.33° C | 54% | 1011.2 hPa | 0 mm | - | 33 W/m² | - |
| 1778109996 | 8.33° C | 56% | 1011.2 hPa | 0 mm | - | 37 W/m² | - |
| 1778109691 | 8.33° C | 62% | 1011.1 hPa | 0 mm | - | 34 W/m² | - |
| 1778109389 | 8.33° C | 60% | 1011.2 hPa | 0 mm | - | 32 W/m² | - |
| 1778109087 | 8.89° C | 60% | 1011.2 hPa | 0 mm | - | 33 W/m² | - |
| 1778108784 | 8.89° C | 59% | 1011.1 hPa | 0 mm | - | 35 W/m² | - |
| 1778108481 | 8.89° C | 59% | 1011.2 hPa | 0 mm | - | 44 W/m² | - |
| 1778108177 | 9.44° C | 58% | 1011 hPa | 0 mm | - | 102 W/m² | - |
| 1778107874 | 8.89° C | 58% | 1011.1 hPa | 0 mm | - | 118 W/m² | - |
| 1778107571 | 8.89° C | 58% | 1011.1 hPa | 0 mm | - | 47 W/m² | - |
| 1778107267 | 8.89° C | 58% | 1011 hPa | 0 mm | - | 41 W/m² | - |
| 1778106963 | 8.89° C | 58% | 1011 hPa | 0 mm | - | 103 W/m² | - |
| 1778106659 | 9.44° C | 58% | 1011 hPa | 0 mm | - | 124 W/m² | - |
| 1778106356 | 9.44° C | 60% | 1010.9 hPa | 0 mm | - | 140 W/m² | - |
| 1778106052 | 9.44° C | 61% | 1010.6 hPa | 0 mm | - | 138 W/m² | - |
| 1778105750 | 9.44° C | 59% | 1010.6 hPa | 0 mm | - | 106 W/m² | - |
| 1778105448 | 9.44° C | 60% | 1010.6 hPa | 0 mm | - | 110 W/m² | - |
| 1778105144 | 9.44° C | 61% | 1010.6 hPa | 0 mm | - | 194 W/m² | - |
| 1778104840 | 8.89° C | 65% | 1010.5 hPa | 0 mm | - | 173 W/m² | - |
| 1778104537 | 9.44° C | 65% | 1010.3 hPa | 0 mm | - | 145 W/m² | - |
| 1778104232 | 8.33° C | 71% | 1010.6 hPa | 0 mm | - | 307 W/m² | - |
* Rain latest hour (hover to see other rain measurements)
** Current wind speed in m/s (hover to see current wind gust speed)